createdAt,value
2024-01-20T00:00:15.778Z,23.40
2024-01-20T00:03:03.840Z,24.20
2024-01-20T00:05:31.720Z,18.80
2024-01-20T00:07:59.754Z,21.30
2024-01-20T00:10:27.391Z,26.00
2024-01-20T00:12:55.061Z,22.40
2024-01-20T00:15:22.893Z,20.20
2024-01-20T00:17:50.651Z,23.20
2024-01-20T00:20:18.417Z,24.50
2024-01-20T00:22:46.850Z,21.50
2024-01-20T00:25:14.614Z,26.90
2024-01-20T00:27:42.658Z,25.10
2024-01-20T00:30:11.292Z,18.20
2024-01-20T00:32:39.264Z,24.20
2024-01-20T00:35:08.516Z,21.90
2024-01-20T00:37:37.891Z,26.40
2024-01-20T00:40:06.900Z,20.20
2024-01-20T00:42:34.689Z,23.10
2024-01-20T00:45:02.355Z,22.90
2024-01-20T00:47:30.340Z,20.90
2024-01-20T00:49:58.053Z,18.80
2024-01-20T00:52:25.704Z,28.80
2024-01-20T00:54:53.385Z,28.30
2024-01-20T00:57:21.036Z,24.30
2024-01-20T00:59:48.754Z,21.70
2024-01-20T01:02:18.175Z,22.50
2024-01-20T01:07:21.041Z,34.70
2024-01-20T01:09:49.624Z,23.40
2024-01-20T01:12:17.313Z,26.00
2024-01-20T01:14:45.020Z,38.00
2024-01-20T01:17:12.738Z,28.20
2024-01-20T01:19:40.406Z,23.30
2024-01-20T01:22:08.057Z,31.30
2024-01-20T01:24:35.650Z,21.90
2024-01-20T01:27:03.428Z,22.90
2024-01-20T01:29:31.095Z,27.20
2024-01-20T01:31:59.110Z,27.10
2024-01-20T01:34:26.740Z,18.10
2024-01-20T01:36:54.630Z,25.40
2024-01-20T01:39:22.335Z,22.80
2024-01-20T01:41:49.986Z,19.30
2024-01-20T01:44:17.626Z,26.50
2024-01-20T01:46:45.365Z,22.00
2024-01-20T01:49:13.011Z,23.90
2024-01-20T01:51:40.658Z,28.80
2024-01-20T01:54:09.596Z,27.80
2024-01-20T01:56:37.201Z,22.50
2024-01-20T01:59:04.845Z,22.10
2024-01-20T02:01:32.617Z,24.40
2024-01-20T02:04:01.108Z,28.30
2024-01-20T02:06:28.941Z,22.00
2024-01-20T02:08:56.750Z,20.90
2024-01-20T02:11:24.476Z,22.50
2024-01-20T02:13:52.116Z,22.20
2024-01-20T02:16:20.012Z,23.50
2024-01-20T02:18:47.756Z,21.50
2024-01-20T02:21:15.398Z,21.90
2024-01-20T02:23:43.033Z,23.50
2024-01-20T02:26:11.601Z,20.60
2024-01-20T02:28:39.190Z,21.70
2024-01-20T02:31:06.842Z,21.40
2024-01-20T02:33:34.543Z,18.90
2024-01-20T02:36:02.888Z,17.20
2024-01-20T02:38:30.522Z,17.00
2024-01-20T02:40:58.309Z,21.40
2024-01-20T02:43:25.904Z,20.20
2024-01-20T02:45:53.482Z,21.20
2024-01-20T02:48:21.155Z,17.40
2024-01-20T02:50:48.846Z,14.60
2024-01-20T02:53:16.464Z,19.10
2024-01-20T02:55:44.059Z,26.30
2024-01-20T02:58:11.628Z,17.40
2024-01-20T03:00:39.299Z,23.60
2024-01-20T03:03:07.069Z,15.60
2024-01-20T03:05:34.749Z,21.70
2024-01-20T03:08:02.447Z,19.30
2024-01-20T03:10:30.052Z,21.00
2024-01-20T03:12:57.672Z,18.60
2024-01-20T03:15:25.514Z,19.70
2024-01-20T03:17:53.304Z,13.70
2024-01-20T03:20:20.966Z,15.80
2024-01-20T03:22:48.592Z,17.80
2024-01-20T03:25:16.205Z,17.60
2024-01-20T03:27:43.963Z,17.90
2024-01-20T03:30:12.417Z,15.80
2024-01-20T03:32:40.116Z,17.30
2024-01-20T03:35:08.169Z,13.10
2024-01-20T03:37:35.977Z,16.90
2024-01-20T03:40:03.884Z,15.10
2024-01-20T03:42:31.641Z,21.60
2024-01-20T03:44:59.509Z,20.90
2024-01-20T03:47:30.957Z,21.20
2024-01-20T03:49:58.814Z,16.60
2024-01-20T03:52:26.402Z,19.70
2024-01-20T03:54:54.022Z,18.00
2024-01-20T03:57:21.641Z,17.00
2024-01-20T03:59:49.375Z,32.80
2024-01-20T04:02:16.997Z,18.10
2024-01-20T04:04:44.662Z,16.80
2024-01-20T04:07:12.277Z,18.00
2024-01-20T04:09:39.901Z,16.20
2024-01-20T04:12:07.938Z,16.60
2024-01-20T04:14:35.633Z,18.20
2024-01-20T04:17:04.761Z,20.20
2024-01-20T04:19:32.586Z,14.00
2024-01-20T04:22:00.241Z,20.10
2024-01-20T04:24:27.909Z,19.20
2024-01-20T04:26:55.571Z,20.10
2024-01-20T04:29:23.260Z,12.20
2024-01-20T04:31:50.899Z,15.80
2024-01-20T04:34:18.603Z,18.90
2024-01-20T04:36:46.269Z,18.00
2024-01-20T04:39:13.926Z,21.10
2024-01-20T04:41:41.589Z,16.40
2024-01-20T04:44:09.194Z,21.20
2024-01-20T04:46:36.790Z,17.00
2024-01-20T04:49:04.806Z,19.60
2024-01-20T04:51:32.564Z,13.10
2024-01-20T04:54:00.235Z,17.10
2024-01-20T04:56:27.869Z,19.00
2024-01-20T04:58:56.371Z,19.70
2024-01-20T05:01:24.004Z,12.90
2024-01-20T05:03:52.171Z,18.70
2024-01-20T05:06:20.096Z,9.90
2024-01-20T05:08:47.793Z,14.80
2024-01-20T05:11:15.450Z,16.70
2024-01-20T05:13:43.067Z,22.10
2024-01-20T05:16:11.656Z,20.70
2024-01-20T05:18:39.351Z,11.40
2024-01-20T05:21:07.695Z,16.40
2024-01-20T05:23:35.999Z,18.70
2024-01-20T05:26:03.697Z,15.90
2024-01-20T05:28:31.295Z,22.30
2024-01-20T05:30:59.212Z,19.10
2024-01-20T05:33:26.909Z,22.00
2024-01-20T05:35:54.741Z,10.50
2024-01-20T05:38:22.377Z,19.90
2024-01-20T05:40:49.984Z,14.10
2024-01-20T05:43:17.821Z,19.70
2024-01-20T05:45:45.583Z,18.20
2024-01-20T05:48:13.373Z,14.90
2024-01-20T05:50:41.106Z,13.60
2024-01-20T05:53:08.712Z,18.20
2024-01-20T05:55:36.450Z,17.90
2024-01-20T05:58:04.323Z,18.30
2024-01-20T06:00:32.459Z,25.60
2024-01-20T06:03:00.148Z,20.10
2024-01-20T06:05:28.219Z,21.30
2024-01-20T06:07:55.912Z,24.20
2024-01-20T06:10:23.784Z,20.30
2024-01-20T06:12:51.430Z,29.60
2024-01-20T06:15:19.025Z,18.20
2024-01-20T06:17:46.727Z,222.90
2024-01-20T06:20:16.641Z,292.50
2024-01-20T06:22:44.302Z,31.80
2024-01-20T06:25:12.205Z,30.20
2024-01-20T06:27:39.844Z,24.10
2024-01-20T06:30:08.043Z,14.80
2024-01-20T06:32:35.779Z,74.10
2024-01-20T06:35:03.900Z,20.00
2024-01-20T06:37:31.900Z,16.00
2024-01-20T06:39:59.485Z,17.20
2024-01-20T06:42:27.135Z,15.00
2024-01-20T06:44:57.203Z,17.90
2024-01-20T06:47:27.246Z,16.20
2024-01-20T06:49:55.097Z,19.60
2024-01-20T06:52:22.740Z,14.30
2024-01-20T06:54:50.460Z,17.40
2024-01-20T06:57:18.176Z,16.20
2024-01-20T06:59:45.978Z,30.80
2024-01-20T07:02:13.575Z,40.90
2024-01-20T07:04:41.208Z,16.10
2024-01-20T07:07:08.947Z,39.90
2024-01-20T07:09:41.825Z,14.10
2024-01-20T07:12:09.774Z,18.90
2024-01-20T07:14:37.446Z,17.90
2024-01-20T07:17:06.409Z,19.40
2024-01-20T07:19:34.207Z,19.20
2024-01-20T07:22:02.120Z,29.40
2024-01-20T07:24:30.340Z,52.20
2024-01-20T07:26:58.055Z,26.90
2024-01-20T07:29:25.764Z,38.30
2024-01-20T07:31:53.437Z,16.30
2024-01-20T07:34:21.535Z,23.00
2024-01-20T07:36:49.217Z,19.00
2024-01-20T07:39:16.908Z,25.90
2024-01-20T07:41:44.504Z,19.50
2024-01-20T07:44:12.214Z,15.60
2024-01-20T07:46:39.901Z,19.00
2024-01-20T07:49:07.637Z,18.80
2024-01-20T07:51:35.500Z,18.30
2024-01-20T07:54:03.550Z,14.70
2024-01-20T07:56:32.050Z,13.00
2024-01-20T07:58:59.755Z,18.60
2024-01-20T08:01:27.472Z,17.50
2024-01-20T08:03:55.140Z,19.20
2024-01-20T08:06:22.944Z,19.10
2024-01-20T08:08:50.609Z,22.70
2024-01-20T08:11:19.492Z,13.70
2024-01-20T08:13:48.446Z,24.40
2024-01-20T08:16:16.058Z,23.50
2024-01-20T08:18:43.797Z,20.40
2024-01-20T08:21:11.848Z,22.60
2024-01-20T08:23:39.461Z,20.00
2024-01-20T08:26:07.380Z,46.20
2024-01-20T08:28:34.978Z,20.30
2024-01-20T08:31:02.733Z,30.90
2024-01-20T08:33:30.588Z,27.10
2024-01-20T08:35:58.258Z,20.00
2024-01-20T08:38:25.874Z,21.10
2024-01-20T08:40:53.450Z,16.40
2024-01-20T08:43:21.949Z,21.90
2024-01-20T08:45:49.603Z,19.10
2024-01-20T08:48:17.246Z,16.80
2024-01-20T08:50:44.906Z,25.00
2024-01-20T08:53:12.547Z,19.10
2024-01-20T08:55:40.198Z,33.70
2024-01-20T08:58:07.784Z,22.00
2024-01-20T09:00:35.427Z,19.60
2024-01-20T09:03:03.454Z,21.90
2024-01-20T09:05:38.022Z,19.10
2024-01-20T09:08:09.078Z,22.80
2024-01-20T09:10:37.577Z,22.70
2024-01-20T09:13:05.321Z,20.70
2024-01-20T09:15:33.183Z,19.30
2024-01-20T09:18:01.118Z,21.90
2024-01-20T09:20:29.090Z,17.30
2024-01-20T09:22:56.816Z,18.40
2024-01-20T09:25:24.510Z,23.90
2024-01-20T09:27:52.272Z,27.10
2024-01-20T09:30:19.917Z,18.30
2024-01-20T09:32:47.839Z,25.70
2024-01-20T09:35:15.657Z,25.40
2024-01-20T09:37:43.336Z,29.10
2024-01-20T09:40:13.029Z,23.90
2024-01-20T09:42:40.974Z,19.80
2024-01-20T09:45:08.864Z,24.50
2024-01-20T09:47:36.657Z,28.70
2024-01-20T09:50:05.615Z,28.70
2024-01-20T09:52:35.530Z,105.60
2024-01-20T09:55:11.073Z,106.80
2024-01-20T09:57:38.838Z,25.90
2024-01-20T10:00:06.996Z,30.80
2024-01-20T10:02:34.642Z,93.90
2024-01-20T10:05:04.931Z,152.30
2024-01-20T10:07:32.707Z,119.80
2024-01-20T10:10:00.449Z,47.90
2024-01-20T10:12:28.189Z,60.70
2024-01-20T10:14:55.980Z,84.00
2024-01-20T10:17:23.702Z,36.60
2024-01-20T10:19:51.358Z,47.90
2024-01-20T10:22:18.989Z,47.40
2024-01-20T10:24:53.435Z,31.60
2024-01-20T10:27:22.161Z,48.10
2024-01-20T10:29:50.367Z,37.00
2024-01-20T10:32:18.041Z,58.20
2024-01-20T10:34:45.847Z,30.30
2024-01-20T10:37:13.936Z,35.80
2024-01-20T10:39:43.718Z,29.30
2024-01-20T10:42:15.366Z,24.00
2024-01-20T10:44:46.038Z,25.20
2024-01-20T10:47:19.150Z,23.50
2024-01-20T10:49:47.329Z,18.00
2024-01-20T10:52:15.207Z,21.40
2024-01-20T10:54:44.667Z,20.30
2024-01-20T10:57:12.641Z,24.60
2024-01-20T10:59:42.307Z,23.60
2024-01-20T11:02:11.694Z,18.80
2024-01-20T11:04:43.663Z,17.00
2024-01-20T11:07:13.350Z,18.40
2024-01-20T11:09:41.138Z,18.60
2024-01-20T11:12:09.193Z,18.40
2024-01-20T11:14:36.952Z,16.40
2024-01-20T11:17:14.279Z,16.70
2024-01-20T11:19:41.951Z,16.30
2024-01-20T11:22:35.281Z,13.70
2024-01-20T11:25:05.177Z,13.40
2024-01-20T11:27:33.081Z,14.90
2024-01-20T11:30:08.373Z,16.80
2024-01-20T11:32:36.132Z,16.00
2024-01-20T11:35:05.648Z,16.90
2024-01-20T11:37:33.297Z,17.40
2024-01-20T11:40:05.640Z,20.30
2024-01-20T11:42:36.401Z,14.70
2024-01-20T11:45:04.673Z,19.70
2024-01-20T11:47:32.354Z,11.90
2024-01-20T11:50:00.383Z,16.40
2024-01-20T11:52:28.255Z,17.30
2024-01-20T11:54:56.232Z,22.90
2024-01-20T11:57:24.520Z,16.80
2024-01-20T11:59:52.275Z,16.00
2024-01-20T12:02:21.205Z,16.40
2024-01-20T12:04:49.579Z,19.70
2024-01-20T12:07:18.465Z,16.50
2024-01-20T12:09:47.177Z,14.20
2024-01-20T12:12:15.403Z,16.00
2024-01-20T12:14:46.059Z,15.50
2024-01-20T12:17:14.386Z,16.80
2024-01-20T12:19:42.753Z,15.40
2024-01-20T12:22:12.123Z,14.50
2024-01-20T12:24:48.127Z,12.50
2024-01-20T12:27:16.462Z,15.70
2024-01-20T12:29:44.232Z,17.40
2024-01-20T12:32:11.919Z,14.60
2024-01-20T12:34:39.678Z,18.00
2024-01-20T12:37:08.947Z,14.30
2024-01-20T12:39:36.987Z,11.50
2024-01-20T12:42:04.932Z,13.50
2024-01-20T12:44:32.651Z,13.30
2024-01-20T12:47:00.301Z,147.40
2024-01-20T12:49:28.257Z,458.40
2024-01-20T12:51:55.845Z,353.50
2024-01-20T12:54:23.446Z,512.30
2024-01-20T12:56:51.041Z,579.20
2024-01-20T12:59:18.643Z,696.90
2024-01-20T13:01:47.153Z,480.80
2024-01-20T13:04:14.801Z,1490.00
2024-01-20T13:06:42.621Z,619.60
2024-01-20T13:09:12.135Z,94.10
2024-01-20T13:11:40.193Z,35.10
2024-01-20T13:14:08.268Z,24.50
2024-01-20T13:16:36.047Z,15.20
2024-01-20T13:19:04.146Z,16.20
2024-01-20T13:21:31.875Z,16.30
2024-01-20T13:24:00.939Z,39.60
2024-01-20T13:26:28.704Z,25.50
2024-01-20T13:28:56.385Z,16.10
2024-01-20T13:31:23.992Z,17.10
2024-01-20T13:33:51.683Z,17.00
2024-01-20T13:36:20.271Z,23.00
2024-01-20T13:38:48.130Z,22.40
2024-01-20T13:41:16.252Z,18.30
2024-01-20T13:43:44.979Z,38.40
2024-01-20T13:46:14.081Z,16.00
2024-01-20T13:48:41.969Z,23.10
2024-01-20T13:51:09.671Z,11.50
2024-01-20T13:53:37.320Z,14.20
2024-01-20T13:56:07.312Z,13.50
2024-01-20T13:58:34.926Z,11.70
2024-01-20T14:01:04.793Z,11.20
2024-01-20T14:03:33.324Z,13.40
2024-01-20T14:06:01.273Z,14.10
2024-01-20T14:08:28.933Z,12.70
2024-01-20T14:10:56.535Z,9.70
2024-01-20T14:13:24.233Z,11.90
2024-01-20T14:15:52.701Z,14.00
2024-01-20T14:18:20.605Z,13.80
2024-01-20T14:20:48.408Z,14.50
2024-01-20T14:23:16.052Z,16.00
2024-01-20T14:25:43.707Z,14.70
2024-01-20T14:28:11.307Z,16.30
2024-01-20T14:30:41.138Z,18.80
2024-01-20T14:33:09.892Z,12.40
2024-01-20T14:35:37.647Z,14.50
2024-01-20T14:38:05.307Z,14.60
2024-01-20T14:40:33.190Z,15.40
2024-01-20T14:43:02.031Z,14.90
2024-01-20T14:45:31.945Z,16.00
2024-01-20T14:48:00.119Z,20.00
2024-01-20T14:50:27.937Z,16.00
2024-01-20T14:52:55.788Z,18.70
2024-01-20T14:55:23.360Z,11.90
2024-01-20T14:57:51.027Z,31.00
2024-01-20T15:00:19.045Z,422.70
2024-01-20T15:02:46.644Z,51.40
2024-01-20T15:05:14.259Z,42.20
2024-01-20T15:07:41.870Z,49.00
2024-01-20T15:10:10.061Z,43.90
2024-01-20T15:12:37.716Z,46.30
2024-01-20T15:15:06.663Z,40.00
2024-01-20T15:17:34.336Z,39.40
2024-01-20T15:20:02.203Z,45.80
2024-01-20T15:22:29.995Z,48.30
2024-01-20T15:24:57.575Z,26.90
2024-01-20T15:27:25.174Z,49.70
2024-01-20T15:29:52.810Z,21.30
2024-01-20T15:32:20.445Z,23.90
2024-01-20T15:34:48.219Z,15.00
2024-01-20T15:37:15.879Z,18.70
2024-01-20T15:39:43.585Z,21.80
2024-01-20T15:42:11.849Z,30.90
2024-01-20T15:44:39.794Z,24.70
2024-01-20T15:47:09.252Z,17.30
2024-01-20T15:49:37.251Z,23.60
2024-01-20T15:52:05.097Z,109.70
2024-01-20T15:54:32.768Z,28.10
2024-01-20T15:57:00.427Z,26.40
2024-01-20T15:59:28.063Z,23.80
2024-01-20T16:01:55.702Z,19.30
2024-01-20T16:04:23.440Z,19.60
2024-01-20T16:06:51.387Z,15.50
2024-01-20T16:09:20.210Z,18.00
2024-01-20T16:11:51.789Z,28.20
2024-01-20T16:14:23.825Z,24.20
2024-01-20T16:16:51.567Z,21.40
2024-01-20T16:19:19.379Z,22.60
2024-01-20T16:21:50.264Z,13.20
2024-01-20T16:24:18.840Z,17.40
2024-01-20T16:26:46.657Z,26.00
2024-01-20T16:29:14.448Z,15.50
2024-01-20T16:31:42.198Z,20.10
2024-01-20T16:34:10.161Z,28.30
2024-01-20T16:36:38.052Z,25.00
2024-01-20T16:39:06.405Z,27.40
2024-01-20T16:41:34.118Z,21.30
2024-01-20T16:44:03.257Z,24.50
2024-01-20T16:46:30.964Z,26.10
2024-01-20T16:48:58.705Z,24.60
2024-01-20T16:51:27.899Z,16.60
2024-01-20T16:53:56.041Z,20.60
2024-01-20T16:56:23.718Z,23.10
2024-01-20T16:58:51.392Z,22.20
2024-01-20T17:01:19.330Z,19.60
2024-01-20T17:03:47.239Z,18.30
2024-01-20T17:06:20.863Z,19.30
2024-01-20T17:08:48.837Z,15.80
2024-01-20T17:11:16.538Z,37.20
2024-01-20T17:13:45.328Z,20.30
2024-01-20T17:16:13.017Z,26.80
2024-01-20T17:18:40.913Z,28.10
2024-01-20T17:21:18.217Z,16.10
2024-01-20T17:23:46.013Z,58.80
2024-01-20T17:26:13.772Z,295.40
2024-01-20T17:28:41.683Z,66.30
2024-01-20T17:31:09.461Z,43.40
2024-01-20T17:33:37.243Z,65.50
2024-01-20T17:36:05.152Z,27.30
2024-01-20T17:38:32.764Z,31.50
2024-01-20T17:41:00.337Z,20.20
2024-01-20T17:43:28.010Z,17.70
2024-01-20T17:45:55.645Z,22.80
2024-01-20T17:48:23.466Z,14.80
2024-01-20T17:50:53.063Z,24.60
2024-01-20T17:53:20.737Z,20.00
2024-01-20T17:55:48.344Z,21.50
2024-01-20T17:58:15.970Z,23.20
2024-01-20T18:00:43.632Z,20.30
2024-01-20T18:03:11.493Z,15.30
2024-01-20T18:05:39.338Z,21.50
2024-01-20T18:08:07.043Z,8.20
2024-01-20T18:10:34.961Z,21.80
2024-01-20T18:13:06.449Z,15.40
2024-01-20T18:15:34.108Z,15.80
2024-01-20T18:18:02.266Z,18.30
2024-01-20T18:20:30.011Z,16.80
2024-01-20T18:22:57.729Z,19.70
2024-01-20T18:25:25.413Z,22.90
2024-01-20T18:27:53.068Z,19.10
2024-01-20T18:30:20.749Z,17.70
2024-01-20T18:32:48.477Z,22.10
2024-01-20T18:35:16.244Z,18.90
2024-01-20T18:37:44.050Z,17.30
2024-01-20T18:40:14.058Z,23.00
2024-01-20T18:42:42.840Z,19.10
2024-01-20T18:45:11.225Z,22.50
2024-01-20T18:47:41.378Z,23.40
2024-01-20T18:50:09.526Z,25.10
2024-01-20T18:52:37.181Z,28.60
2024-01-20T18:55:05.406Z,23.60
2024-01-20T18:57:33.704Z,28.00
2024-01-20T19:00:01.406Z,26.40
2024-01-20T19:02:29.262Z,22.40
2024-01-20T19:04:57.169Z,11.80
2024-01-20T19:07:25.165Z,20.80
2024-01-20T19:09:52.750Z,27.60
2024-01-20T19:12:21.380Z,26.20
2024-01-20T19:14:51.601Z,19.90
2024-01-20T19:17:19.232Z,25.10
2024-01-20T19:19:46.959Z,23.80
2024-01-20T19:22:14.727Z,24.90
2024-01-20T19:24:42.573Z,24.00
2024-01-20T19:27:12.276Z,18.70
2024-01-20T19:29:41.062Z,22.90
2024-01-20T19:32:09.470Z,20.60
2024-01-20T19:34:37.370Z,16.80
2024-01-20T19:37:05.235Z,21.70
2024-01-20T19:39:33.982Z,18.50
2024-01-20T19:42:01.600Z,19.40
2024-01-20T19:44:29.785Z,23.00
2024-01-20T19:46:57.652Z,25.40
2024-01-20T19:49:25.618Z,27.70
2024-01-20T19:51:53.807Z,25.10
2024-01-20T19:54:21.444Z,26.90
2024-01-20T19:56:49.114Z,20.30
2024-01-20T19:59:17.623Z,19.70
2024-01-20T20:01:45.749Z,25.80
2024-01-20T20:04:17.173Z,26.60
2024-01-20T20:06:50.619Z,20.50
2024-01-20T20:09:19.830Z,34.60
2024-01-20T20:11:47.666Z,26.40
2024-01-20T20:14:18.424Z,26.00
2024-01-20T20:16:46.104Z,26.90
2024-01-20T20:19:14.025Z,23.10
2024-01-20T20:21:41.731Z,46.60
2024-01-20T20:24:10.984Z,36.60
2024-01-20T20:26:45.008Z,27.00
2024-01-20T20:29:13.532Z,27.80
2024-01-20T20:31:41.279Z,19.00
2024-01-20T20:34:09.392Z,18.90
2024-01-20T20:36:38.749Z,30.80
2024-01-20T20:39:06.983Z,23.80
2024-01-20T20:41:34.730Z,24.90
2024-01-20T20:44:02.656Z,22.00
2024-01-20T20:46:32.310Z,23.00
2024-01-20T20:49:00.092Z,18.60
2024-01-20T20:51:28.391Z,24.10
2024-01-20T20:53:56.675Z,24.90
2024-01-20T20:56:24.472Z,25.30
2024-01-20T20:58:52.113Z,21.20
2024-01-20T21:01:20.013Z,18.80
2024-01-20T21:03:47.852Z,19.90
2024-01-20T21:06:15.996Z,17.40
2024-01-20T21:08:43.678Z,14.20
2024-01-20T21:11:11.366Z,30.90
2024-01-20T21:13:38.952Z,23.60
2024-01-20T21:16:06.774Z,24.60
2024-01-20T21:18:34.767Z,24.60
2024-01-20T21:21:02.494Z,19.20
2024-01-20T21:23:30.285Z,24.90
2024-01-20T21:25:57.897Z,16.30
2024-01-20T21:28:25.489Z,19.50
2024-01-20T21:30:54.949Z,24.60
2024-01-20T21:33:22.819Z,20.80
2024-01-20T21:35:50.547Z,23.90
2024-01-20T21:38:18.174Z,26.20
2024-01-20T21:40:47.748Z,19.10
2024-01-20T21:43:15.762Z,26.20
2024-01-20T21:45:45.624Z,19.70
2024-01-20T21:48:14.932Z,29.20
2024-01-20T21:50:43.632Z,25.30
2024-01-20T21:53:11.462Z,24.30
2024-01-20T21:55:39.336Z,20.80
2024-01-20T21:58:07.475Z,19.70
2024-01-20T22:00:35.242Z,24.50
2024-01-20T22:03:02.968Z,22.80
2024-01-20T22:05:30.687Z,20.40
2024-01-20T22:08:00.295Z,21.80
2024-01-20T22:10:28.322Z,30.10
2024-01-20T22:12:55.980Z,26.90
2024-01-20T22:15:23.874Z,28.10
2024-01-20T22:17:52.110Z,25.50
2024-01-20T22:20:20.062Z,25.40
2024-01-20T22:22:47.710Z,20.00
2024-01-20T22:25:16.534Z,31.00
2024-01-20T22:27:45.586Z,23.40
2024-01-20T22:30:13.939Z,11.90
2024-01-20T22:32:42.349Z,21.60
2024-01-20T22:35:10.156Z,25.80
2024-01-20T22:37:37.793Z,31.00
2024-01-20T22:40:07.403Z,23.60
2024-01-20T22:42:36.800Z,25.80
2024-01-20T22:45:10.541Z,25.40
2024-01-20T22:47:38.779Z,25.70
2024-01-20T22:50:06.955Z,21.80
2024-01-20T22:52:34.742Z,22.20
2024-01-20T22:55:02.328Z,24.40
2024-01-20T22:57:30.511Z,27.90
2024-01-20T22:59:58.233Z,31.30
2024-01-20T23:02:25.827Z,29.70
2024-01-20T23:04:55.626Z,31.20
2024-01-20T23:07:23.986Z,25.20
2024-01-20T23:09:51.654Z,23.20
2024-01-20T23:12:20.809Z,29.40
2024-01-20T23:14:49.129Z,28.50
2024-01-20T23:17:20.518Z,27.90
2024-01-20T23:19:48.207Z,23.80
2024-01-20T23:22:15.804Z,23.90
2024-01-20T23:24:43.660Z,28.00
2024-01-20T23:27:11.450Z,25.40
2024-01-20T23:29:39.063Z,26.90
2024-01-20T23:32:06.776Z,22.50
2024-01-20T23:34:35.062Z,25.70
2024-01-20T23:37:02.958Z,24.40
2024-01-20T23:39:30.867Z,24.70
2024-01-20T23:41:58.589Z,23.30
2024-01-20T23:44:26.802Z,29.20
2024-01-20T23:46:55.765Z,31.00
2024-01-20T23:49:23.461Z,33.50
2024-01-20T23:51:51.211Z,24.30
2024-01-20T23:54:19.047Z,26.70
2024-01-20T23:56:46.653Z,25.80
2024-01-20T23:59:14.290Z,22.40
